Terminal Aerodrome Forecast
Issued by NWS Wilmington, OH

Current Version | Previous Version | Text Only | Print | Product List | Glossary Off
Versions: 1 2 3 4 5 6 7 8 9 10 11 12 13 14 15

593
FTUS41 KILN 052341
TAFCMH
TAF
KCMH 052341Z 0600/0624 07004KT P6SM BKN250
     FM060600 08006KT P6SM SCT025 BKN120
     FM061200 09008KT P6SM -RA OVC025
     FM061500 09008KT 4SM -RA BR OVC008
     FM062300 29010KT P6SM OVC012=

USA.gov is the U.S. government's official web portal to all federal, state and local government web resources and services.